sensor_id;sensor_type;location;lat;lon;timestamp;P1;durP1;ratioP1;P2;durP2;ratioP2
40164;SDS011;25882;51.120;17.248;2022-12-18T00:02:08;67.97;;;24.70;;
40164;SDS011;25882;51.120;17.248;2022-12-18T00:04:35;59.75;;;21.55;;
40164;SDS011;25882;51.120;17.248;2022-12-18T00:07:02;59.35;;;20.50;;
40164;SDS011;25882;51.120;17.248;2022-12-18T00:09:29;65.03;;;22.50;;
40164;SDS011;25882;51.120;17.248;2022-12-18T00:11:58;51.05;;;18.38;;
40164;SDS011;25882;51.120;17.248;2022-12-18T00:14:25;57.25;;;21.45;;
40164;SDS011;25882;51.120;17.248;2022-12-18T00:16:54;65.32;;;22.50;;
40164;SDS011;25882;51.120;17.248;2022-12-18T00:19:21;55.72;;;20.52;;
40164;SDS011;25882;51.120;17.248;2022-12-18T00:21:48;63.35;;;21.25;;
40164;SDS011;25882;51.120;17.248;2022-12-18T00:24:15;53.75;;;19.83;;
40164;SDS011;25882;51.120;17.248;2022-12-18T00:26:43;66.10;;;22.38;;
40164;SDS011;25882;51.120;17.248;2022-12-18T00:29:12;51.20;;;19.20;;
40164;SDS011;25882;51.120;17.248;2022-12-18T00:31:41;50.35;;;19.23;;
40164;SDS011;25882;51.120;17.248;2022-12-18T00:34:11;59.22;;;18.90;;
40164;SDS011;25882;51.120;17.248;2022-12-18T00:36:40;64.90;;;21.77;;
40164;SDS011;25882;51.120;17.248;2022-12-18T00:39:07;59.15;;;21.38;;
40164;SDS011;25882;51.120;17.248;2022-12-18T00:41:35;54.05;;;20.60;;
40164;SDS011;25882;51.120;17.248;2022-12-18T00:44:22;57.00;;;19.88;;
40164;SDS011;25882;51.120;17.248;2022-12-18T00:46:50;56.65;;;19.40;;
40164;SDS011;25882;51.120;17.248;2022-12-18T00:49:17;62.25;;;20.35;;
40164;SDS011;25882;51.120;17.248;2022-12-18T00:51:47;53.63;;;19.20;;
40164;SDS011;25882;51.120;17.248;2022-12-18T00:54:15;63.72;;;20.85;;
40164;SDS011;25882;51.120;17.248;2022-12-18T00:56:44;50.05;;;18.17;;
40164;SDS011;25882;51.120;17.248;2022-12-18T00:59:11;49.03;;;17.42;;
40164;SDS011;25882;51.120;17.248;2022-12-18T01:01:40;58.42;;;18.73;;
40164;SDS011;25882;51.120;17.248;2022-12-18T01:04:08;51.65;;;18.50;;
40164;SDS011;25882;51.120;17.248;2022-12-18T01:06:35;53.47;;;17.48;;
40164;SDS011;25882;51.120;17.248;2022-12-18T01:09:03;50.60;;;16.48;;
40164;SDS011;25882;51.120;17.248;2022-12-18T01:11:35;51.40;;;16.35;;
40164;SDS011;25882;51.120;17.248;2022-12-18T01:14:04;51.40;;;18.52;;
40164;SDS011;25882;51.120;17.248;2022-12-18T01:16:33;48.75;;;16.77;;
40164;SDS011;25882;51.120;17.248;2022-12-18T01:19:04;65.70;;;22.63;;
40164;SDS011;25882;51.120;17.248;2022-12-18T01:21:34;53.03;;;17.42;;
40164;SDS011;25882;51.120;17.248;2022-12-18T01:24:03;50.70;;;16.98;;
40164;SDS011;25882;51.120;17.248;2022-12-18T01:26:33;61.15;;;18.38;;
40164;SDS011;25882;51.120;17.248;2022-12-18T01:29:00;60.17;;;21.52;;
40164;SDS011;25882;51.120;17.248;2022-12-18T01:31:29;59.22;;;20.10;;
40164;SDS011;25882;51.120;17.248;2022-12-18T01:33:57;58.55;;;19.17;;
40164;SDS011;25882;51.120;17.248;2022-12-18T01:36:28;52.67;;;16.65;;
40164;SDS011;25882;51.120;17.248;2022-12-18T01:38:55;50.05;;;20.08;;
40164;SDS011;25882;51.120;17.248;2022-12-18T01:41:26;55.40;;;17.20;;
40164;SDS011;25882;51.120;17.248;2022-12-18T01:47:14;58.28;;;20.77;;
40164;SDS011;25882;51.120;17.248;2022-12-18T01:49:42;59.72;;;19.70;;
40164;SDS011;25882;51.120;17.248;2022-12-18T01:52:11;60.15;;;21.42;;
40164;SDS011;25882;51.120;17.248;2022-12-18T01:54:41;68.82;;;19.52;;
40164;SDS011;25882;51.120;17.248;2022-12-18T01:57:07;60.08;;;21.02;;
40164;SDS011;25882;51.120;17.248;2022-12-18T01:59:34;59.00;;;20.13;;
40164;SDS011;25882;51.120;17.248;2022-12-18T02:02:02;58.78;;;20.55;;
40164;SDS011;25882;51.120;17.248;2022-12-18T02:04:29;55.22;;;19.48;;
40164;SDS011;25882;51.120;17.248;2022-12-18T02:06:57;66.57;;;17.83;;
40164;SDS011;25882;51.120;17.248;2022-12-18T02:09:31;63.13;;;19.55;;
40164;SDS011;25882;51.120;17.248;2022-12-18T02:12:03;67.90;;;21.67;;
40164;SDS011;25882;51.120;17.248;2022-12-18T02:14:35;61.15;;;19.65;;
40164;SDS011;25882;51.120;17.248;2022-12-18T02:17:07;51.80;;;18.55;;
40164;SDS011;25882;51.120;17.248;2022-12-18T02:19:41;54.80;;;18.58;;
40164;SDS011;25882;51.120;17.248;2022-12-18T02:22:17;59.15;;;18.42;;
40164;SDS011;25882;51.120;17.248;2022-12-18T02:24:57;60.42;;;18.60;;
40164;SDS011;25882;51.120;17.248;2022-12-18T02:27:32;53.77;;;18.87;;
40164;SDS011;25882;51.120;17.248;2022-12-18T02:30:00;58.88;;;18.38;;
40164;SDS011;25882;51.120;17.248;2022-12-18T02:32:31;58.80;;;20.00;;
40164;SDS011;25882;51.120;17.248;2022-12-18T02:35:01;58.10;;;19.67;;
40164;SDS011;25882;51.120;17.248;2022-12-18T02:37:30;58.63;;;20.35;;
40164;SDS011;25882;51.120;17.248;2022-12-18T02:39:58;57.33;;;18.75;;
40164;SDS011;25882;51.120;17.248;2022-12-18T02:42:27;61.60;;;20.75;;
40164;SDS011;25882;51.120;17.248;2022-12-18T02:44:56;56.83;;;20.15;;
40164;SDS011;25882;51.120;17.248;2022-12-18T02:47:24;52.45;;;18.08;;
40164;SDS011;25882;51.120;17.248;2022-12-18T02:49:55;53.20;;;17.53;;
40164;SDS011;25882;51.120;17.248;2022-12-18T02:52:31;59.53;;;21.52;;
40164;SDS011;25882;51.120;17.248;2022-12-18T02:55:06;48.42;;;18.23;;
40164;SDS011;25882;51.120;17.248;2022-12-18T02:57:42;44.50;;;14.75;;
40164;SDS011;25882;51.120;17.248;2022-12-18T03:04:09;54.55;;;17.13;;
40164;SDS011;25882;51.120;17.248;2022-12-18T03:06:39;44.83;;;17.15;;
40164;SDS011;25882;51.120;17.248;2022-12-18T03:09:08;52.13;;;17.67;;
40164;SDS011;25882;51.120;17.248;2022-12-18T03:11:37;44.35;;;18.20;;
40164;SDS011;25882;51.120;17.248;2022-12-18T03:14:25;46.78;;;15.48;;
40164;SDS011;25882;51.120;17.248;2022-12-18T03:16:53;52.80;;;18.80;;
40164;SDS011;25882;51.120;17.248;2022-12-18T03:19:23;45.15;;;17.35;;
40164;SDS011;25882;51.120;17.248;2022-12-18T03:21:53;47.22;;;16.55;;
40164;SDS011;25882;51.120;17.248;2022-12-18T03:24:21;51.70;;;19.02;;
40164;SDS011;25882;51.120;17.248;2022-12-18T03:26:50;50.35;;;18.42;;
40164;SDS011;25882;51.120;17.248;2022-12-18T03:29:20;63.13;;;18.92;;
40164;SDS011;25882;51.120;17.248;2022-12-18T03:31:49;51.40;;;17.83;;
40164;SDS011;25882;51.120;17.248;2022-12-18T03:34:19;59.95;;;21.63;;
40164;SDS011;25882;51.120;17.248;2022-12-18T03:36:49;65.25;;;24.35;;
40164;SDS011;25882;51.120;17.248;2022-12-18T03:39:15;58.42;;;24.70;;
40164;SDS011;25882;51.120;17.248;2022-12-18T03:41:43;58.72;;;21.08;;
40164;SDS011;25882;51.120;17.248;2022-12-18T03:44:11;46.15;;;17.35;;
40164;SDS011;25882;51.120;17.248;2022-12-18T03:46:40;52.47;;;18.27;;
40164;SDS011;25882;51.120;17.248;2022-12-18T03:51:39;64.38;;;21.65;;
40164;SDS011;25882;51.120;17.248;2022-12-18T03:54:08;46.78;;;18.02;;
40164;SDS011;25882;51.120;17.248;2022-12-18T03:56:36;53.40;;;18.65;;
40164;SDS011;25882;51.120;17.248;2022-12-18T03:59:05;55.47;;;19.70;;
40164;SDS011;25882;51.120;17.248;2022-12-18T04:01:33;48.35;;;18.17;;
40164;SDS011;25882;51.120;17.248;2022-12-18T04:04:00;45.20;;;17.02;;
40164;SDS011;25882;51.120;17.248;2022-12-18T04:06:27;49.25;;;17.55;;
40164;SDS011;25882;51.120;17.248;2022-12-18T04:08:56;49.85;;;17.48;;
40164;SDS011;25882;51.120;17.248;2022-12-18T04:11:22;39.35;;;14.73;;
40164;SDS011;25882;51.120;17.248;2022-12-18T04:13:48;45.00;;;16.10;;
40164;SDS011;25882;51.120;17.248;2022-12-18T04:16:15;43.63;;;15.18;;
40164;SDS011;25882;51.120;17.248;2022-12-18T04:18:41;46.95;;;15.85;;
40164;SDS011;25882;51.120;17.248;2022-12-18T04:21:07;45.53;;;16.52;;
40164;SDS011;25882;51.120;17.248;2022-12-18T04:23:34;43.28;;;15.98;;
40164;SDS011;25882;51.120;17.248;2022-12-18T04:26:01;44.45;;;15.75;;
40164;SDS011;25882;51.120;17.248;2022-12-18T04:28:28;37.55;;;14.52;;
40164;SDS011;25882;51.120;17.248;2022-12-18T04:30:54;43.45;;;15.95;;
40164;SDS011;25882;51.120;17.248;2022-12-18T04:33:21;42.88;;;15.45;;
40164;SDS011;25882;51.120;17.248;2022-12-18T04:35:47;46.28;;;15.82;;
40164;SDS011;25882;51.120;17.248;2022-12-18T04:38:14;53.75;;;18.70;;
40164;SDS011;25882;51.120;17.248;2022-12-18T04:40:40;44.15;;;16.83;;
40164;SDS011;25882;51.120;17.248;2022-12-18T04:43:08;38.67;;;15.35;;
40164;SDS011;25882;51.120;17.248;2022-12-18T04:45:34;45.00;;;14.73;;
40164;SDS011;25882;51.120;17.248;2022-12-18T04:48:01;41.70;;;13.82;;
40164;SDS011;25882;51.120;17.248;2022-12-18T04:50:28;45.45;;;16.30;;
40164;SDS011;25882;51.120;17.248;2022-12-18T04:52:55;41.15;;;14.93;;
40164;SDS011;25882;51.120;17.248;2022-12-18T04:55:21;43.55;;;17.65;;
40164;SDS011;25882;51.120;17.248;2022-12-18T04:57:51;44.65;;;16.27;;
40164;SDS011;25882;51.120;17.248;2022-12-18T05:00:19;41.38;;;15.20;;
40164;SDS011;25882;51.120;17.248;2022-12-18T05:02:46;43.65;;;16.23;;
40164;SDS011;25882;51.120;17.248;2022-12-18T05:05:12;46.20;;;16.17;;
40164;SDS011;25882;51.120;17.248;2022-12-18T05:07:38;44.15;;;15.65;;
40164;SDS011;25882;51.120;17.248;2022-12-18T05:10:05;42.90;;;15.60;;
40164;SDS011;25882;51.120;17.248;2022-12-18T05:12:32;44.03;;;16.30;;
40164;SDS011;25882;51.120;17.248;2022-12-18T05:14:58;45.30;;;16.40;;
40164;SDS011;25882;51.120;17.248;2022-12-18T05:17:26;47.88;;;15.77;;
40164;SDS011;25882;51.120;17.248;2022-12-18T05:19:53;46.38;;;16.45;;
40164;SDS011;25882;51.120;17.248;2022-12-18T05:22:19;39.88;;;14.95;;
40164;SDS011;25882;51.120;17.248;2022-12-18T05:24:45;43.75;;;15.95;;
40164;SDS011;25882;51.120;17.248;2022-12-18T05:27:12;44.47;;;16.38;;
40164;SDS011;25882;51.120;17.248;2022-12-18T05:29:38;45.42;;;17.35;;
40164;SDS011;25882;51.120;17.248;2022-12-18T05:32:05;42.88;;;17.60;;
40164;SDS011;25882;51.120;17.248;2022-12-18T05:34:32;46.10;;;16.52;;
40164;SDS011;25882;51.120;17.248;2022-12-18T05:36:59;48.30;;;15.90;;
40164;SDS011;25882;51.120;17.248;2022-12-18T05:39:25;53.03;;;16.38;;
40164;SDS011;25882;51.120;17.248;2022-12-18T05:41:52;52.45;;;17.77;;
40164;SDS011;25882;51.120;17.248;2022-12-18T05:44:18;47.17;;;14.95;;
40164;SDS011;25882;51.120;17.248;2022-12-18T05:46:44;50.95;;;16.55;;
40164;SDS011;25882;51.120;17.248;2022-12-18T05:49:11;40.22;;;15.15;;
40164;SDS011;25882;51.120;17.248;2022-12-18T05:51:38;48.85;;;16.55;;
40164;SDS011;25882;51.120;17.248;2022-12-18T05:54:05;51.28;;;17.63;;
40164;SDS011;25882;51.120;17.248;2022-12-18T05:56:31;45.45;;;15.80;;
40164;SDS011;25882;51.120;17.248;2022-12-18T05:58:57;43.58;;;16.00;;
40164;SDS011;25882;51.120;17.248;2022-12-18T06:01:25;50.70;;;17.27;;
40164;SDS011;25882;51.120;17.248;2022-12-18T06:03:52;41.55;;;15.70;;
40164;SDS011;25882;51.120;17.248;2022-12-18T06:06:19;43.17;;;14.40;;
40164;SDS011;25882;51.120;17.248;2022-12-18T06:08:49;41.80;;;16.58;;
40164;SDS011;25882;51.120;17.248;2022-12-18T06:11:17;40.08;;;13.15;;
40164;SDS011;25882;51.120;17.248;2022-12-18T06:13:44;53.60;;;15.43;;
40164;SDS011;25882;51.120;17.248;2022-12-18T06:16:11;43.30;;;13.98;;
40164;SDS011;25882;51.120;17.248;2022-12-18T06:18:37;38.67;;;14.73;;
40164;SDS011;25882;51.120;17.248;2022-12-18T06:21:04;39.90;;;15.68;;
40164;SDS011;25882;51.120;17.248;2022-12-18T06:23:30;44.50;;;17.10;;
40164;SDS011;25882;51.120;17.248;2022-12-18T06:25:58;43.47;;;17.42;;
40164;SDS011;25882;51.120;17.248;2022-12-18T06:28:28;45.08;;;16.70;;
40164;SDS011;25882;51.120;17.248;2022-12-18T06:30:55;48.25;;;15.88;;
40164;SDS011;25882;51.120;17.248;2022-12-18T06:33:21;43.20;;;16.50;;
40164;SDS011;25882;51.120;17.248;2022-12-18T06:35:47;53.45;;;18.88;;
40164;SDS011;25882;51.120;17.248;2022-12-18T06:38:14;39.80;;;14.70;;
40164;SDS011;25882;51.120;17.248;2022-12-18T06:40:40;49.47;;;17.77;;
40164;SDS011;25882;51.120;17.248;2022-12-18T06:43:08;50.90;;;17.88;;
40164;SDS011;25882;51.120;17.248;2022-12-18T06:45:35;46.38;;;18.08;;
40164;SDS011;25882;51.120;17.248;2022-12-18T06:48:01;50.97;;;18.98;;
40164;SDS011;25882;51.120;17.248;2022-12-18T06:50:28;44.03;;;17.90;;
40164;SDS011;25882;51.120;17.248;2022-12-18T06:52:54;42.03;;;17.77;;
40164;SDS011;25882;51.120;17.248;2022-12-18T06:55:21;55.50;;;19.52;;
40164;SDS011;25882;51.120;17.248;2022-12-18T06:57:47;51.17;;;19.50;;
40164;SDS011;25882;51.120;17.248;2022-12-18T07:00:16;51.28;;;19.00;;
40164;SDS011;25882;51.120;17.248;2022-12-18T07:02:43;62.00;;;21.23;;
40164;SDS011;25882;51.120;17.248;2022-12-18T07:05:09;55.60;;;18.98;;
40164;SDS011;25882;51.120;17.248;2022-12-18T07:07:35;49.90;;;20.55;;
40164;SDS011;25882;51.120;17.248;2022-12-18T07:10:03;49.08;;;19.98;;
40164;SDS011;25882;51.120;17.248;2022-12-18T07:12:29;50.53;;;19.70;;
40164;SDS011;25882;51.120;17.248;2022-12-18T07:14:56;59.17;;;20.15;;
40164;SDS011;25882;51.120;17.248;2022-12-18T07:17:23;60.65;;;21.83;;
40164;SDS011;25882;51.120;17.248;2022-12-18T07:19:50;50.47;;;19.88;;
40164;SDS011;25882;51.120;17.248;2022-12-18T07:22:16;56.35;;;20.95;;
40164;SDS011;25882;51.120;17.248;2022-12-18T07:24:43;50.42;;;19.67;;
40164;SDS011;25882;51.120;17.248;2022-12-18T07:27:11;52.58;;;20.25;;
40164;SDS011;25882;51.120;17.248;2022-12-18T07:29:37;60.72;;;21.23;;
40164;SDS011;25882;51.120;17.248;2022-12-18T07:32:04;59.55;;;21.55;;
40164;SDS011;25882;51.120;17.248;2022-12-18T07:34:32;68.05;;;22.60;;
40164;SDS011;25882;51.120;17.248;2022-12-18T07:36:58;61.20;;;21.98;;
40164;SDS011;25882;51.120;17.248;2022-12-18T07:39:25;60.35;;;21.33;;
40164;SDS011;25882;51.120;17.248;2022-12-18T07:41:51;63.95;;;22.20;;
40164;SDS011;25882;51.120;17.248;2022-12-18T07:44:37;61.88;;;22.08;;
40164;SDS011;25882;51.120;17.248;2022-12-18T07:47:03;66.75;;;22.52;;
40164;SDS011;25882;51.120;17.248;2022-12-18T07:49:29;62.50;;;21.33;;
40164;SDS011;25882;51.120;17.248;2022-12-18T07:51:57;63.58;;;21.13;;
40164;SDS011;25882;51.120;17.248;2022-12-18T07:54:24;55.03;;;20.40;;
40164;SDS011;25882;51.120;17.248;2022-12-18T07:56:50;62.38;;;21.60;;
40164;SDS011;25882;51.120;17.248;2022-12-18T07:59:17;62.88;;;23.45;;
40164;SDS011;25882;51.120;17.248;2022-12-18T08:01:44;60.45;;;22.42;;
40164;SDS011;25882;51.120;17.248;2022-12-18T08:04:10;71.65;;;24.38;;
40164;SDS011;25882;51.120;17.248;2022-12-18T08:06:38;59.38;;;22.90;;
40164;SDS011;25882;51.120;17.248;2022-12-18T08:09:05;63.70;;;22.27;;
40164;SDS011;25882;51.120;17.248;2022-12-18T08:11:31;63.60;;;22.92;;
40164;SDS011;25882;51.120;17.248;2022-12-18T08:13:58;68.40;;;23.38;;
40164;SDS011;25882;51.120;17.248;2022-12-18T08:16:24;57.08;;;21.35;;
40164;SDS011;25882;51.120;17.248;2022-12-18T08:18:51;64.47;;;25.55;;
40164;SDS011;25882;51.120;17.248;2022-12-18T08:21:18;64.60;;;25.48;;
40164;SDS011;25882;51.120;17.248;2022-12-18T08:23:50;66.35;;;24.83;;
40164;SDS011;25882;51.120;17.248;2022-12-18T08:26:17;64.30;;;22.75;;
40164;SDS011;25882;51.120;17.248;2022-12-18T08:28:43;60.65;;;23.65;;
40164;SDS011;25882;51.120;17.248;2022-12-18T08:31:10;61.58;;;25.63;;
40164;SDS011;25882;51.120;17.248;2022-12-18T08:33:37;62.75;;;23.00;;
40164;SDS011;25882;51.120;17.248;2022-12-18T08:36:04;53.67;;;22.15;;
40164;SDS011;25882;51.120;17.248;2022-12-18T08:38:32;53.90;;;23.38;;
40164;SDS011;25882;51.120;17.248;2022-12-18T08:41:00;63.60;;;22.33;;
40164;SDS011;25882;51.120;17.248;2022-12-18T08:43:27;53.15;;;21.70;;
40164;SDS011;25882;51.120;17.248;2022-12-18T08:46:12;57.63;;;21.83;;
40164;SDS011;25882;51.120;17.248;2022-12-18T08:48:39;60.88;;;24.40;;
40164;SDS011;25882;51.120;17.248;2022-12-18T08:51:05;57.63;;;24.73;;
40164;SDS011;25882;51.120;17.248;2022-12-18T08:53:32;56.47;;;21.70;;
40164;SDS011;25882;51.120;17.248;2022-12-18T08:56:00;54.30;;;23.02;;
40164;SDS011;25882;51.120;17.248;2022-12-18T08:58:27;71.45;;;24.33;;
40164;SDS011;25882;51.120;17.248;2022-12-18T09:00:53;58.15;;;24.25;;
40164;SDS011;25882;51.120;17.248;2022-12-18T09:03:20;56.25;;;21.05;;
40164;SDS011;25882;51.120;17.248;2022-12-18T09:05:47;49.88;;;19.77;;
40164;SDS011;25882;51.120;17.248;2022-12-18T09:08:15;45.42;;;19.65;;
40164;SDS011;25882;51.120;17.248;2022-12-18T09:10:41;55.97;;;20.85;;
40164;SDS011;25882;51.120;17.248;2022-12-18T09:13:11;54.83;;;20.60;;
40164;SDS011;25882;51.120;17.248;2022-12-18T09:15:40;50.10;;;19.67;;
40164;SDS011;25882;51.120;17.248;2022-12-18T09:18:08;57.50;;;20.95;;
40164;SDS011;25882;51.120;17.248;2022-12-18T09:20:34;46.17;;;17.58;;
40164;SDS011;25882;51.120;17.248;2022-12-18T09:23:01;49.47;;;18.90;;
40164;SDS011;25882;51.120;17.248;2022-12-18T09:25:28;49.00;;;19.63;;
40164;SDS011;25882;51.120;17.248;2022-12-18T09:27:59;44.67;;;19.05;;
40164;SDS011;25882;51.120;17.248;2022-12-18T09:30:27;51.50;;;21.55;;
40164;SDS011;25882;51.120;17.248;2022-12-18T09:32:54;49.10;;;20.40;;
40164;SDS011;25882;51.120;17.248;2022-12-18T09:35:20;46.95;;;17.35;;
40164;SDS011;25882;51.120;17.248;2022-12-18T09:37:47;43.58;;;18.92;;
40164;SDS011;25882;51.120;17.248;2022-12-18T09:40:13;45.97;;;18.23;;
40164;SDS011;25882;51.120;17.248;2022-12-18T09:42:41;44.03;;;18.60;;
40164;SDS011;25882;51.120;17.248;2022-12-18T09:45:12;47.58;;;19.83;;
40164;SDS011;25882;51.120;17.248;2022-12-18T09:47:42;49.65;;;19.00;;
40164;SDS011;25882;51.120;17.248;2022-12-18T09:50:15;42.00;;;18.58;;
40164;SDS011;25882;51.120;17.248;2022-12-18T09:52:48;48.80;;;20.90;;
40164;SDS011;25882;51.120;17.248;2022-12-18T09:55:20;50.55;;;18.55;;
40164;SDS011;25882;51.120;17.248;2022-12-18T09:57:53;47.15;;;20.63;;
40164;SDS011;25882;51.120;17.248;2022-12-18T10:00:22;51.83;;;18.50;;
40164;SDS011;25882;51.120;17.248;2022-12-18T10:02:52;51.33;;;21.15;;
40164;SDS011;25882;51.120;17.248;2022-12-18T10:05:20;52.13;;;19.70;;
40164;SDS011;25882;51.120;17.248;2022-12-18T10:07:55;69.85;;;26.45;;
40164;SDS011;25882;51.120;17.248;2022-12-18T10:10:27;62.33;;;23.08;;
40164;SDS011;25882;51.120;17.248;2022-12-18T10:13:01;49.38;;;21.00;;
40164;SDS011;25882;51.120;17.248;2022-12-18T10:15:33;47.83;;;17.92;;
40164;SDS011;25882;51.120;17.248;2022-12-18T10:18:05;46.15;;;19.70;;
40164;SDS011;25882;51.120;17.248;2022-12-18T10:20:41;49.28;;;18.58;;
40164;SDS011;25882;51.120;17.248;2022-12-18T10:23:12;48.50;;;19.40;;
40164;SDS011;25882;51.120;17.248;2022-12-18T10:25:45;54.10;;;21.98;;
40164;SDS011;25882;51.120;17.248;2022-12-18T10:28:18;46.17;;;19.25;;
40164;SDS011;25882;51.120;17.248;2022-12-18T10:30:45;54.38;;;21.20;;
40164;SDS011;25882;51.120;17.248;2022-12-18T10:33:14;54.78;;;20.58;;
40164;SDS011;25882;51.120;17.248;2022-12-18T10:35:44;48.28;;;20.75;;
40164;SDS011;25882;51.120;17.248;2022-12-18T10:38:21;56.92;;;24.25;;
40164;SDS011;25882;51.120;17.248;2022-12-18T10:40:50;50.58;;;19.08;;
40164;SDS011;25882;51.120;17.248;2022-12-18T10:43:22;60.73;;;22.43;;
40164;SDS011;25882;51.120;17.248;2022-12-18T10:48:49;57.50;;;22.83;;
40164;SDS011;25882;51.120;17.248;2022-12-18T10:51:22;50.38;;;21.20;;
40164;SDS011;25882;51.120;17.248;2022-12-18T10:53:54;51.60;;;20.15;;
40164;SDS011;25882;51.120;17.248;2022-12-18T10:56:25;56.63;;;23.02;;
40164;SDS011;25882;51.120;17.248;2022-12-18T10:58:56;49.97;;;20.17;;
40164;SDS011;25882;51.120;17.248;2022-12-18T11:01:24;58.42;;;23.02;;
40164;SDS011;25882;51.120;17.248;2022-12-18T11:06:35;52.38;;;22.05;;
40164;SDS011;25882;51.120;17.248;2022-12-18T11:09:21;65.93;;;25.25;;
40164;SDS011;25882;51.120;17.248;2022-12-18T11:11:49;58.55;;;23.27;;
40164;SDS011;25882;51.120;17.248;2022-12-18T11:14:19;54.58;;;23.30;;
40164;SDS011;25882;51.120;17.248;2022-12-18T11:16:48;56.80;;;22.35;;
40164;SDS011;25882;51.120;17.248;2022-12-18T11:22:03;52.58;;;22.75;;
40164;SDS011;25882;51.120;17.248;2022-12-18T11:24:51;54.72;;;20.38;;
40164;SDS011;25882;51.120;17.248;2022-12-18T11:27:19;63.65;;;24.65;;
40164;SDS011;25882;51.120;17.248;2022-12-18T11:29:46;58.95;;;22.92;;
40164;SDS011;25882;51.120;17.248;2022-12-18T11:32:27;67.60;;;25.63;;
40164;SDS011;25882;51.120;17.248;2022-12-18T11:34:59;63.72;;;21.98;;
40164;SDS011;25882;51.120;17.248;2022-12-18T11:37:29;55.50;;;23.23;;
40164;SDS011;25882;51.120;17.248;2022-12-18T11:39:57;56.55;;;21.05;;
40164;SDS011;25882;51.120;17.248;2022-12-18T11:42:27;69.90;;;25.52;;
40164;SDS011;25882;51.120;17.248;2022-12-18T11:45:00;69.30;;;24.65;;
40164;SDS011;25882;51.120;17.248;2022-12-18T11:47:34;61.20;;;26.52;;
40164;SDS011;25882;51.120;17.248;2022-12-18T11:50:10;62.50;;;23.58;;
40164;SDS011;25882;51.120;17.248;2022-12-18T11:52:40;63.45;;;24.92;;
40164;SDS011;25882;51.120;17.248;2022-12-18T11:55:10;62.50;;;24.33;;
40164;SDS011;25882;51.120;17.248;2022-12-18T11:57:39;57.40;;;23.85;;
40164;SDS011;25882;51.120;17.248;2022-12-18T12:00:11;65.80;;;23.58;;
40164;SDS011;25882;51.120;17.248;2022-12-18T12:02:43;68.20;;;23.48;;
40164;SDS011;25882;51.120;17.248;2022-12-18T12:05:30;60.00;;;23.60;;
40164;SDS011;25882;51.120;17.248;2022-12-18T12:08:02;69.90;;;23.52;;
40164;SDS011;25882;51.120;17.248;2022-12-18T12:10:38;47.17;;;18.45;;
40164;SDS011;25882;51.120;17.248;2022-12-18T12:13:14;67.43;;;23.17;;
40164;SDS011;25882;51.120;17.248;2022-12-18T12:15:47;58.65;;;23.30;;
40164;SDS011;25882;51.120;17.248;2022-12-18T12:18:20;62.85;;;24.77;;
40164;SDS011;25882;51.120;17.248;2022-12-18T12:20:55;62.22;;;24.77;;
40164;SDS011;25882;51.120;17.248;2022-12-18T12:23:27;60.47;;;24.48;;
40164;SDS011;25882;51.120;17.248;2022-12-18T12:26:01;66.32;;;24.67;;
40164;SDS011;25882;51.120;17.248;2022-12-18T12:31:32;66.28;;;23.10;;
40164;SDS011;25882;51.120;17.248;2022-12-18T12:34:14;57.83;;;23.42;;
40164;SDS011;25882;51.120;17.248;2022-12-18T12:36:49;56.97;;;20.30;;
40164;SDS011;25882;51.120;17.248;2022-12-18T12:39:24;54.22;;;21.13;;
40164;SDS011;25882;51.120;17.248;2022-12-18T12:41:54;56.78;;;19.50;;
40164;SDS011;25882;51.120;17.248;2022-12-18T12:44:41;45.58;;;18.13;;
40164;SDS011;25882;51.120;17.248;2022-12-18T12:47:12;46.15;;;18.23;;
40164;SDS011;25882;51.120;17.248;2022-12-18T12:49:41;45.80;;;18.38;;
40164;SDS011;25882;51.120;17.248;2022-12-18T12:52:17;52.75;;;17.40;;
40164;SDS011;25882;51.120;17.248;2022-12-18T12:54:46;54.42;;;19.05;;
40164;SDS011;25882;51.120;17.248;2022-12-18T12:57:15;42.10;;;17.80;;
40164;SDS011;25882;51.120;17.248;2022-12-18T12:59:46;52.13;;;19.98;;
40164;SDS011;25882;51.120;17.248;2022-12-18T13:02:18;44.55;;;19.50;;
40164;SDS011;25882;51.120;17.248;2022-12-18T13:07:18;46.45;;;17.73;;
40164;SDS011;25882;51.120;17.248;2022-12-18T13:12:50;46.10;;;18.60;;
40164;SDS011;25882;51.120;17.248;2022-12-18T13:15:25;61.20;;;19.52;;
40164;SDS011;25882;51.120;17.248;2022-12-18T13:18:05;52.42;;;21.33;;
40164;SDS011;25882;51.120;17.248;2022-12-18T13:20:38;49.95;;;18.70;;
40164;SDS011;25882;51.120;17.248;2022-12-18T13:25:56;57.13;;;20.25;;
40164;SDS011;25882;51.120;17.248;2022-12-18T13:28:23;48.47;;;20.15;;
40164;SDS011;25882;51.120;17.248;2022-12-18T13:34:18;54.50;;;20.77;;
40164;SDS011;25882;51.120;17.248;2022-12-18T13:36:44;61.40;;;21.63;;
40164;SDS011;25882;51.120;17.248;2022-12-18T13:48:25;48.05;;;17.88;;
40164;SDS011;25882;51.120;17.248;2022-12-18T13:50:53;58.88;;;20.90;;
40164;SDS011;25882;51.120;17.248;2022-12-18T13:53:24;59.65;;;22.67;;
40164;SDS011;25882;51.120;17.248;2022-12-18T13:55:55;60.20;;;22.15;;
40164;SDS011;25882;51.120;17.248;2022-12-18T13:58:22;59.70;;;20.95;;
40164;SDS011;25882;51.120;17.248;2022-12-18T14:00:48;64.28;;;24.25;;
40164;SDS011;25882;51.120;17.248;2022-12-18T14:03:16;71.22;;;24.52;;
40164;SDS011;25882;51.120;17.248;2022-12-18T14:05:45;67.95;;;25.25;;
40164;SDS011;25882;51.120;17.248;2022-12-18T14:08:14;70.22;;;24.58;;
40164;SDS011;25882;51.120;17.248;2022-12-18T14:10:41;75.78;;;24.95;;
40164;SDS011;25882;51.120;17.248;2022-12-18T14:13:10;74.40;;;26.20;;
40164;SDS011;25882;51.120;17.248;2022-12-18T14:15:41;81.70;;;28.33;;
40164;SDS011;25882;51.120;17.248;2022-12-18T14:18:14;74.60;;;26.92;;
40164;SDS011;25882;51.120;17.248;2022-12-18T14:20:48;74.00;;;27.73;;
40164;SDS011;25882;51.120;17.248;2022-12-18T14:23:25;91.22;;;32.53;;
40164;SDS011;25882;51.120;17.248;2022-12-18T14:25:56;94.90;;;35.10;;
40164;SDS011;25882;51.120;17.248;2022-12-18T14:28:25;87.40;;;30.33;;
40164;SDS011;25882;51.120;17.248;2022-12-18T14:30:52;80.78;;;27.10;;
40164;SDS011;25882;51.120;17.248;2022-12-18T14:33:20;96.20;;;32.95;;
40164;SDS011;25882;51.120;17.248;2022-12-18T14:35:55;92.30;;;32.70;;
40164;SDS011;25882;51.120;17.248;2022-12-18T14:38:25;86.85;;;30.00;;
40164;SDS011;25882;51.120;17.248;2022-12-18T14:40:55;78.95;;;31.60;;
40164;SDS011;25882;51.120;17.248;2022-12-18T14:43:22;84.57;;;30.85;;
40164;SDS011;25882;51.120;17.248;2022-12-18T14:45:51;92.63;;;35.28;;
40164;SDS011;25882;51.120;17.248;2022-12-18T14:48:18;95.53;;;33.55;;
40164;SDS011;25882;51.120;17.248;2022-12-18T14:50:54;91.80;;;31.83;;
40164;SDS011;25882;51.120;17.248;2022-12-18T14:53:28;93.00;;;32.13;;
40164;SDS011;25882;51.120;17.248;2022-12-18T14:55:59;83.55;;;33.40;;
40164;SDS011;25882;51.120;17.248;2022-12-18T14:58:27;94.70;;;33.10;;
40164;SDS011;25882;51.120;17.248;2022-12-18T15:00:55;94.50;;;36.92;;
40164;SDS011;25882;51.120;17.248;2022-12-18T15:03:23;83.63;;;32.83;;